Impacts METAR Board
IDs:

KBWI - Baltimore-Washington, MD, US

Updated at: 0100 UTC 25 May 2018
Potential Impact None Slight Moderate High
Time 24/13Z 24/14Z 24/15Z 24/16Z 24/17Z 24/18Z 24/19Z 24/20Z 24/21Z 24/22Z 24/23Z 25/00Z 25/01Z
Temp73 75 79 80 81 82 84 84 84 82 79 77 72
Dewpt51 51 52 47 44 43 45 45 50 49 48 48 50
Altim30.17 30.17 30.18 30.18 30.18 30.16 30.14 30.12 30.11 30.10 30.11 30.11 30.12
VIS10 10 10 10 10 10 10 10 10 10 10 10 10
CIG-- -- -- -- -- -- -- -- -- -- -- -- --
CoverFEWFEWFEWCLRCLRCLRCLRCLRCLRCLRCLRCLRFEW
FltCatVFRVFRVFRVFRVFRVFRVFRVFRVFRVFRVFRVFRVFR
WX--------------------------
WDir3503010400030280270160160170190
WSpd5 6 8 8 3 3 4 3 5 6 5 3 3
WGst-- 15 -- -- -- -- -- -- -- -- -- -- --
Raw hourly METARs
KBWI 241254Z 35005KT 10SM FEW250 23/11 A3017 RMK AO2 SLP216 T02280106
KBWI 241354Z 03006G15KT 10SM FEW000 FEW250 24/11 A3017 RMK AO2 SLP216 FU FEW000 FU PLUME AT AP DRFTG SW T02390106
KBWI 241454Z 01008KT 10SM FEW250 26/11 A3018 RMK AO2 SLP218 T02610111 51005
KBWI 241554Z 04008KT 10SM CLR 27/08 A3018 RMK AO2 SLP218 T02670083
KBWI 241654Z VRB03KT 10SM CLR 27/07 A3018 RMK AO2 SLP217 T02720067
KBWI 241754Z VRB03KT 10SM CLR 28/06 A3016 RMK AO2 SLP211 T02780061 10278 20211 58007
KBWI 241854Z 03004KT 10SM CLR 29/07 A3014 RMK AO2 SLP206 T02890072
KBWI 241954Z 28003KT 10SM CLR 29/07 A3012 RMK AO2 SLP199 T02890072
KBWI 242054Z 27005KT 10SM CLR 29/10 A3011 RMK AO2 SLP196 T02890100 56015
KBWI 242154Z 16006KT 10SM CLR 28/09 A3010 RMK AO2 SLP193 T02780094
KBWI 242254Z 16005KT 10SM CLR 26/09 A3011 RMK AO2 SLP193 T02610089
KBWI 242354Z 17003KT 10SM CLR 25/09 A3011 RMK AO2 SLP195 T02500089 10294 20250 55001
KBWI 250054Z 19003KT 10SM FEW160 FEW250 22/10 A3012 RMK AO2 SLP198 T02220100



Page loaded:  01:17 UTC  |   06:17 PM Pacific  |   07:17 PM Mountain  |   08:17 PM Central  |   09:17 PM Eastern

 

ADVISORIES

FORECASTS

FORECASTS

OBSERVATIONS

USER TOOLS

ABOUT US